sensor_id;sensor_type;location;lat;lon;timestamp;temperature;humidity
75466;HTU21D;64049;46.290;44.240;2023-11-21T00:01:58;4.46;79.96
75466;HTU21D;64049;46.290;44.240;2023-11-21T00:04:24;4.48;79.81
75466;HTU21D;64049;46.290;44.240;2023-11-21T00:06:51;4.47;79.74
75466;HTU21D;64049;46.290;44.240;2023-11-21T00:09:17;4.48;79.64
75466;HTU21D;64049;46.290;44.240;2023-11-21T00:11:44;4.48;79.33
75466;HTU21D;64049;46.290;44.240;2023-11-21T00:14:11;4.48;79.23
75466;HTU21D;64049;46.290;44.240;2023-11-21T00:16:37;4.49;79.14
75466;HTU21D;64049;46.290;44.240;2023-11-21T00:19:03;4.49;79.05
75466;HTU21D;64049;46.290;44.240;2023-11-21T00:21:29;4.48;78.94
75466;HTU21D;64049;46.290;44.240;2023-11-21T00:23:55;4.48;78.75
75466;HTU21D;64049;46.290;44.240;2023-11-21T00:26:20;4.48;78.62
75466;HTU21D;64049;46.290;44.240;2023-11-21T00:28:56;4.48;78.48
75466;HTU21D;64049;46.290;44.240;2023-11-21T00:31:22;4.48;78.39
75466;HTU21D;64049;46.290;44.240;2023-11-21T00:33:48;4.49;78.44
75466;HTU21D;64049;46.290;44.240;2023-11-21T00:36:14;4.47;78.54
75466;HTU21D;64049;46.290;44.240;2023-11-21T00:38:40;4.46;78.66
75466;HTU21D;64049;46.290;44.240;2023-11-21T00:41:06;4.42;78.92
75466;HTU21D;64049;46.290;44.240;2023-11-21T00:43:32;4.38;79.10
75466;HTU21D;64049;46.290;44.240;2023-11-21T00:46:04;4.36;79.27
75466;HTU21D;64049;46.290;44.240;2023-11-21T00:48:30;4.38;79.36
75466;HTU21D;64049;46.290;44.240;2023-11-21T00:50:56;4.38;79.43
75466;HTU21D;64049;46.290;44.240;2023-11-21T00:53:22;4.36;79.53
75466;HTU21D;64049;46.290;44.240;2023-11-21T00:55:48;4.35;79.59
75466;HTU21D;64049;46.290;44.240;2023-11-21T00:58:14;4.30;79.75
75466;HTU21D;64049;46.290;44.240;2023-11-21T01:00:40;4.28;79.89
75466;HTU21D;64049;46.290;44.240;2023-11-21T01:03:06;4.23;80.03
75466;HTU21D;64049;46.290;44.240;2023-11-21T01:05:35;4.22;80.15
75466;HTU21D;64049;46.290;44.240;2023-11-21T01:08:00;4.20;80.27
75466;HTU21D;64049;46.290;44.240;2023-11-21T01:10:26;4.17;80.36
75466;HTU21D;64049;46.290;44.240;2023-11-21T01:12:53;4.13;80.43
75466;HTU21D;64049;46.290;44.240;2023-11-21T01:15:19;4.06;80.49
75466;HTU21D;64049;46.290;44.240;2023-11-21T01:17:45;4.00;80.49
75466;HTU21D;64049;46.290;44.240;2023-11-21T01:20:11;3.92;80.41
75466;HTU21D;64049;46.290;44.240;2023-11-21T01:22:39;3.87;80.38
75466;HTU21D;64049;46.290;44.240;2023-11-21T01:25:05;3.83;80.47
75466;HTU21D;64049;46.290;44.240;2023-11-21T01:27:34;3.82;80.47
75466;HTU21D;64049;46.290;44.240;2023-11-21T01:30:01;3.77;80.54
75466;HTU21D;64049;46.290;44.240;2023-11-21T01:32:27;3.73;80.55
75466;HTU21D;64049;46.290;44.240;2023-11-21T01:34:54;3.71;80.38
75466;HTU21D;64049;46.290;44.240;2023-11-21T01:37:21;3.68;80.31
75466;HTU21D;64049;46.290;44.240;2023-11-21T01:39:48;3.64;80.28
75466;HTU21D;64049;46.290;44.240;2023-11-21T01:42:14;3.60;80.25
75466;HTU21D;64049;46.290;44.240;2023-11-21T01:44:40;3.53;80.11
75466;HTU21D;64049;46.290;44.240;2023-11-21T01:47:08;3.48;79.98
75466;HTU21D;64049;46.290;44.240;2023-11-21T01:49:35;3.41;79.69
75466;HTU21D;64049;46.290;44.240;2023-11-21T01:52:02;3.39;79.29
75466;HTU21D;64049;46.290;44.240;2023-11-21T01:54:30;3.35;78.83
75466;HTU21D;64049;46.290;44.240;2023-11-21T01:57:00;3.32;78.46
75466;HTU21D;64049;46.290;44.240;2023-11-21T01:59:36;3.28;78.05
75466;HTU21D;64049;46.290;44.240;2023-11-21T02:02:07;3.27;77.89
75466;HTU21D;64049;46.290;44.240;2023-11-21T02:04:35;3.23;77.89
75466;HTU21D;64049;46.290;44.240;2023-11-21T02:07:04;3.20;77.96
75466;HTU21D;64049;46.290;44.240;2023-11-21T02:09:33;3.19;77.89
75466;HTU21D;64049;46.290;44.240;2023-11-21T02:12:00;3.17;77.79
75466;HTU21D;64049;46.290;44.240;2023-11-21T02:14:27;3.14;77.66
75466;HTU21D;64049;46.290;44.240;2023-11-21T02:16:56;3.13;77.54
75466;HTU21D;64049;46.290;44.240;2023-11-21T02:19:23;3.12;77.33
75466;HTU21D;64049;46.290;44.240;2023-11-21T02:21:59;3.08;77.40
75466;HTU21D;64049;46.290;44.240;2023-11-21T02:24:29;3.06;77.35
75466;HTU21D;64049;46.290;44.240;2023-11-21T02:26:55;3.04;77.36
75466;HTU21D;64049;46.290;44.240;2023-11-21T02:29:21;3.03;77.44
75466;HTU21D;64049;46.290;44.240;2023-11-21T02:31:52;3.02;77.44
75466;HTU21D;64049;46.290;44.240;2023-11-21T02:34:21;3.02;77.56
75466;HTU21D;64049;46.290;44.240;2023-11-21T02:36:48;2.99;77.68
75466;HTU21D;64049;46.290;44.240;2023-11-21T02:39:17;3.00;77.78
75466;HTU21D;64049;46.290;44.240;2023-11-21T02:41:44;2.98;77.80
75466;HTU21D;64049;46.290;44.240;2023-11-21T02:44:10;2.97;77.85
75466;HTU21D;64049;46.290;44.240;2023-11-21T02:46:37;2.94;77.92
75466;HTU21D;64049;46.290;44.240;2023-11-21T02:49:03;2.89;78.06
75466;HTU21D;64049;46.290;44.240;2023-11-21T02:51:32;2.86;78.21
75466;HTU21D;64049;46.290;44.240;2023-11-21T02:53:59;2.83;78.39
75466;HTU21D;64049;46.290;44.240;2023-11-21T02:56:28;2.81;78.56
75466;HTU21D;64049;46.290;44.240;2023-11-21T02:58:59;2.80;78.66
75466;HTU21D;64049;46.290;44.240;2023-11-21T03:01:26;2.79;78.79
75466;HTU21D;64049;46.290;44.240;2023-11-21T03:03:53;2.78;78.89
75466;HTU21D;64049;46.290;44.240;2023-11-21T03:06:20;2.82;78.94
75466;HTU21D;64049;46.290;44.240;2023-11-21T03:08:47;2.83;78.95
75466;HTU21D;64049;46.290;44.240;2023-11-21T03:11:13;2.85;79.03
75466;HTU21D;64049;46.290;44.240;2023-11-21T03:13:40;2.87;79.02
75466;HTU21D;64049;46.290;44.240;2023-11-21T03:16:10;2.88;79.08
75466;HTU21D;64049;46.290;44.240;2023-11-21T03:18:37;2.90;79.08
75466;HTU21D;64049;46.290;44.240;2023-11-21T03:21:04;2.90;79.11
75466;HTU21D;64049;46.290;44.240;2023-11-21T03:23:31;2.91;79.08
75466;HTU21D;64049;46.290;44.240;2023-11-21T03:25:57;2.91;79.07
75466;HTU21D;64049;46.290;44.240;2023-11-21T03:28:24;2.91;79.11
75466;HTU21D;64049;46.290;44.240;2023-11-21T03:30:50;2.91;79.18
75466;HTU21D;64049;46.290;44.240;2023-11-21T03:33:16;2.93;79.24
75466;HTU21D;64049;46.290;44.240;2023-11-21T03:35:41;2.90;79.38
75466;HTU21D;64049;46.290;44.240;2023-11-21T03:38:09;2.90;79.54
75466;HTU21D;64049;46.290;44.240;2023-11-21T03:40:35;2.91;79.66
75466;HTU21D;64049;46.290;44.240;2023-11-21T03:43:01;2.89;79.87
75466;HTU21D;64049;46.290;44.240;2023-11-21T03:45:27;2.88;80.04
75466;HTU21D;64049;46.290;44.240;2023-11-21T03:47:53;2.88;80.15
75466;HTU21D;64049;46.290;44.240;2023-11-21T03:50:19;2.89;80.29
75466;HTU21D;64049;46.290;44.240;2023-11-21T03:52:45;2.88;80.30
75466;HTU21D;64049;46.290;44.240;2023-11-21T03:55:11;2.85;80.22
75466;HTU21D;64049;46.290;44.240;2023-11-21T03:57:39;2.81;80.15
75466;HTU21D;64049;46.290;44.240;2023-11-21T04:00:06;2.75;80.18
75466;HTU21D;64049;46.290;44.240;2023-11-21T04:02:37;2.71;80.35
75466;HTU21D;64049;46.290;44.240;2023-11-21T04:05:04;2.67;80.48
75466;HTU21D;64049;46.290;44.240;2023-11-21T04:07:30;2.62;80.62
75466;HTU21D;64049;46.290;44.240;2023-11-21T04:09:56;2.64;80.75
75466;HTU21D;64049;46.290;44.240;2023-11-21T04:12:22;2.64;80.67
75466;HTU21D;64049;46.290;44.240;2023-11-21T04:14:48;2.64;80.59
75466;HTU21D;64049;46.290;44.240;2023-11-21T04:17:14;2.59;80.56
75466;HTU21D;64049;46.290;44.240;2023-11-21T04:19:40;2.54;80.67
75466;HTU21D;64049;46.290;44.240;2023-11-21T04:22:06;2.52;80.77
75466;HTU21D;64049;46.290;44.240;2023-11-21T04:24:32;2.47;80.91
75466;HTU21D;64049;46.290;44.240;2023-11-21T04:26:58;2.43;81.06
75466;HTU21D;64049;46.290;44.240;2023-11-21T04:29:24;2.41;81.19
75466;HTU21D;64049;46.290;44.240;2023-11-21T04:31:49;2.39;81.31
75466;HTU21D;64049;46.290;44.240;2023-11-21T04:34:15;2.37;81.32
75466;HTU21D;64049;46.290;44.240;2023-11-21T04:36:41;2.36;81.27
75466;HTU21D;64049;46.290;44.240;2023-11-21T04:39:07;2.35;81.10
75466;HTU21D;64049;46.290;44.240;2023-11-21T04:41:33;2.31;80.85
75466;HTU21D;64049;46.290;44.240;2023-11-21T04:43:59;2.31;80.62
75466;HTU21D;64049;46.290;44.240;2023-11-21T04:46:27;2.28;80.42
75466;HTU21D;64049;46.290;44.240;2023-11-21T04:48:53;2.27;80.24
75466;HTU21D;64049;46.290;44.240;2023-11-21T04:51:19;2.27;80.04
75466;HTU21D;64049;46.290;44.240;2023-11-21T04:53:45;2.24;79.86
75466;HTU21D;64049;46.290;44.240;2023-11-21T04:56:11;2.26;79.83
75466;HTU21D;64049;46.290;44.240;2023-11-21T04:58:37;2.24;79.86
75466;HTU21D;64049;46.290;44.240;2023-11-21T05:01:07;2.24;79.97
75466;HTU21D;64049;46.290;44.240;2023-11-21T05:03:33;2.25;80.05
75466;HTU21D;64049;46.290;44.240;2023-11-21T05:05:59;2.23;80.10
75466;HTU21D;64049;46.290;44.240;2023-11-21T05:08:25;2.20;80.20
75466;HTU21D;64049;46.290;44.240;2023-11-21T05:10:52;2.19;80.36
75466;HTU21D;64049;46.290;44.240;2023-11-21T05:13:20;2.17;80.48
75466;HTU21D;64049;46.290;44.240;2023-11-21T05:15:46;2.14;80.50
75466;HTU21D;64049;46.290;44.240;2023-11-21T05:18:12;2.14;80.47
75466;HTU21D;64049;46.290;44.240;2023-11-21T05:20:39;2.14;80.37
75466;HTU21D;64049;46.290;44.240;2023-11-21T05:23:07;2.15;80.30
75466;HTU21D;64049;46.290;44.240;2023-11-21T05:25:34;2.16;80.08
75466;HTU21D;64049;46.290;44.240;2023-11-21T05:28:00;2.16;79.87
75466;HTU21D;64049;46.290;44.240;2023-11-21T05:30:27;2.17;79.65
75466;HTU21D;64049;46.290;44.240;2023-11-21T05:32:53;2.15;79.40
75466;HTU21D;64049;46.290;44.240;2023-11-21T05:35:19;2.13;79.25
75466;HTU21D;64049;46.290;44.240;2023-11-21T05:37:47;2.15;79.24
75466;HTU21D;64049;46.290;44.240;2023-11-21T05:40:13;2.16;79.11
75466;HTU21D;64049;46.290;44.240;2023-11-21T05:42:39;2.20;79.05
75466;HTU21D;64049;46.290;44.240;2023-11-21T05:45:07;2.26;78.97
75466;HTU21D;64049;46.290;44.240;2023-11-21T05:47:38;2.29;78.82
75466;HTU21D;64049;46.290;44.240;2023-11-21T05:50:07;2.26;78.38
75466;HTU21D;64049;46.290;44.240;2023-11-21T05:52:38;2.26;78.15
75466;HTU21D;64049;46.290;44.240;2023-11-21T05:55:05;2.27;78.11
75466;HTU21D;64049;46.290;44.240;2023-11-21T05:57:37;2.28;78.05
75466;HTU21D;64049;46.290;44.240;2023-11-21T06:00:08;2.28;78.11
75466;HTU21D;64049;46.290;44.240;2023-11-21T06:02:39;2.25;78.09
75466;HTU21D;64049;46.290;44.240;2023-11-21T06:05:09;2.23;78.10
75466;HTU21D;64049;46.290;44.240;2023-11-21T06:07:36;2.22;78.11
75466;HTU21D;64049;46.290;44.240;2023-11-21T06:10:03;2.21;78.14
75466;HTU21D;64049;46.290;44.240;2023-11-21T06:12:32;2.22;77.86
75466;HTU21D;64049;46.290;44.240;2023-11-21T06:15:04;2.21;77.76
75466;HTU21D;64049;46.290;44.240;2023-11-21T06:17:35;2.21;77.73
75466;HTU21D;64049;46.290;44.240;2023-11-21T06:20:09;2.17;77.64
75466;HTU21D;64049;46.290;44.240;2023-11-21T06:22:37;2.17;77.47
75466;HTU21D;64049;46.290;44.240;2023-11-21T06:25:04;2.17;77.42
75466;HTU21D;64049;46.290;44.240;2023-11-21T06:27:37;2.24;77.50
75466;HTU21D;64049;46.290;44.240;2023-11-21T06:30:04;2.21;77.43
75466;HTU21D;64049;46.290;44.240;2023-11-21T06:32:30;2.17;77.50
75466;HTU21D;64049;46.290;44.240;2023-11-21T06:34:56;2.16;77.51
75466;HTU21D;64049;46.290;44.240;2023-11-21T06:37:26;2.13;77.60
75466;HTU21D;64049;46.290;44.240;2023-11-21T06:39:52;2.14;77.69
75466;HTU21D;64049;46.290;44.240;2023-11-21T06:42:19;2.09;77.66
75466;HTU21D;64049;46.290;44.240;2023-11-21T06:44:47;2.07;77.79
75466;HTU21D;64049;46.290;44.240;2023-11-21T06:47:14;2.07;77.82
75466;HTU21D;64049;46.290;44.240;2023-11-21T06:49:42;2.06;77.91
75466;HTU21D;64049;46.290;44.240;2023-11-21T06:52:08;2.06;77.96
75466;HTU21D;64049;46.290;44.240;2023-11-21T06:54:34;2.03;77.92
75466;HTU21D;64049;46.290;44.240;2023-11-21T06:57:01;2.02;77.89
75466;HTU21D;64049;46.290;44.240;2023-11-21T06:59:29;2.02;77.91
75466;HTU21D;64049;46.290;44.240;2023-11-21T07:01:56;2.03;77.72
75466;HTU21D;64049;46.290;44.240;2023-11-21T07:04:22;2.09;77.48
75466;HTU21D;64049;46.290;44.240;2023-11-21T07:06:48;2.08;77.27
75466;HTU21D;64049;46.290;44.240;2023-11-21T07:09:13;2.11;77.23
75466;HTU21D;64049;46.290;44.240;2023-11-21T07:11:41;2.08;77.19
75466;HTU21D;64049;46.290;44.240;2023-11-21T07:14:07;2.07;77.27
75466;HTU21D;64049;46.290;44.240;2023-11-21T07:16:35;2.08;77.06
75466;HTU21D;64049;46.290;44.240;2023-11-21T07:19:06;2.08;76.82
75466;HTU21D;64049;46.290;44.240;2023-11-21T07:21:32;2.06;76.73
75466;HTU21D;64049;46.290;44.240;2023-11-21T07:24:02;2.03;76.74
75466;HTU21D;64049;46.290;44.240;2023-11-21T07:26:29;2.05;76.73
75466;HTU21D;64049;46.290;44.240;2023-11-21T07:28:55;2.02;76.88
75466;HTU21D;64049;46.290;44.240;2023-11-21T07:31:23;1.99;76.88
75466;HTU21D;64049;46.290;44.240;2023-11-21T07:33:52;1.88;77.04
75466;HTU21D;64049;46.290;44.240;2023-11-21T07:36:19;1.84;77.34
75466;HTU21D;64049;46.290;44.240;2023-11-21T07:38:46;1.78;77.58
75466;HTU21D;64049;46.290;44.240;2023-11-21T07:41:12;1.68;77.87
75466;HTU21D;64049;46.290;44.240;2023-11-21T07:43:41;1.60;78.21
75466;HTU21D;64049;46.290;44.240;2023-11-21T07:46:07;1.56;78.52
75466;HTU21D;64049;46.290;44.240;2023-11-21T07:48:34;1.52;78.76
75466;HTU21D;64049;46.290;44.240;2023-11-21T07:51:01;1.49;79.17
75466;HTU21D;64049;46.290;44.240;2023-11-21T07:53:28;1.47;79.54
75466;HTU21D;64049;46.290;44.240;2023-11-21T07:55:56;1.37;79.92
75466;HTU21D;64049;46.290;44.240;2023-11-21T07:58:22;1.28;80.42
75466;HTU21D;64049;46.290;44.240;2023-11-21T08:00:49;1.21;80.75
75466;HTU21D;64049;46.290;44.240;2023-11-21T08:03:16;1.17;81.15
75466;HTU21D;64049;46.290;44.240;2023-11-21T08:05:44;1.17;81.36
75466;HTU21D;64049;46.290;44.240;2023-11-21T08:08:10;1.20;81.54
75466;HTU21D;64049;46.290;44.240;2023-11-21T08:10:37;1.22;81.60
75466;HTU21D;64049;46.290;44.240;2023-11-21T08:13:03;1.22;81.61
75466;HTU21D;64049;46.290;44.240;2023-11-21T08:15:29;1.25;81.54
75466;HTU21D;64049;46.290;44.240;2023-11-21T08:17:58;1.26;81.50
75466;HTU21D;64049;46.290;44.240;2023-11-21T08:20:27;1.24;81.47
75466;HTU21D;64049;46.290;44.240;2023-11-21T08:22:54;1.25;81.44
75466;HTU21D;64049;46.290;44.240;2023-11-21T08:25:22;1.25;81.51
75466;HTU21D;64049;46.290;44.240;2023-11-21T08:27:48;1.27;81.49
75466;HTU21D;64049;46.290;44.240;2023-11-21T08:30:14;1.28;81.48
75466;HTU21D;64049;46.290;44.240;2023-11-21T08:32:42;1.31;81.36
75466;HTU21D;64049;46.290;44.240;2023-11-21T08:35:09;1.25;81.23
75466;HTU21D;64049;46.290;44.240;2023-11-21T08:37:35;1.34;81.23
75466;HTU21D;64049;46.290;44.240;2023-11-21T08:40:04;1.45;81.02
75466;HTU21D;64049;46.290;44.240;2023-11-21T08:42:34;1.48;80.89
75466;HTU21D;64049;46.290;44.240;2023-11-21T08:45:00;1.52;80.45
75466;HTU21D;64049;46.290;44.240;2023-11-21T08:47:26;1.51;80.16
75466;HTU21D;64049;46.290;44.240;2023-11-21T08:49:52;1.49;79.98
75466;HTU21D;64049;46.290;44.240;2023-11-21T08:52:21;1.53;79.93
75466;HTU21D;64049;46.290;44.240;2023-11-21T08:54:50;1.47;80.01
75466;HTU21D;64049;46.290;44.240;2023-11-21T08:57:22;1.37;80.17
75466;HTU21D;64049;46.290;44.240;2023-11-21T08:59:48;1.29;80.30
75466;HTU21D;64049;46.290;44.240;2023-11-21T09:02:14;1.22;80.76
75466;HTU21D;64049;46.290;44.240;2023-11-21T09:04:40;1.21;81.27
75466;HTU21D;64049;46.290;44.240;2023-11-21T09:07:06;1.13;81.26
75466;HTU21D;64049;46.290;44.240;2023-11-21T09:09:31;1.09;81.14
75466;HTU21D;64049;46.290;44.240;2023-11-21T09:11:57;1.10;81.05
75466;HTU21D;64049;46.290;44.240;2023-11-21T09:14:26;1.10;81.03
75466;HTU21D;64049;46.290;44.240;2023-11-21T09:16:52;1.08;80.98
75466;HTU21D;64049;46.290;44.240;2023-11-21T09:19:17;1.06;81.09
75466;HTU21D;64049;46.290;44.240;2023-11-21T09:21:43;1.05;81.23
75466;HTU21D;64049;46.290;44.240;2023-11-21T09:24:09;0.99;81.20
75466;HTU21D;64049;46.290;44.240;2023-11-21T09:26:35;0.97;81.85
75466;HTU21D;64049;46.290;44.240;2023-11-21T09:29:01;0.94;81.88
75466;HTU21D;64049;46.290;44.240;2023-11-21T09:31:27;0.94;81.48
75466;HTU21D;64049;46.290;44.240;2023-11-21T09:33:53;1.01;81.10
75466;HTU21D;64049;46.290;44.240;2023-11-21T09:36:19;1.02;80.83
75466;HTU21D;64049;46.290;44.240;2023-11-21T09:38:47;1.04;80.48
75466;HTU21D;64049;46.290;44.240;2023-11-21T09:41:32;1.05;79.76
75466;HTU21D;64049;46.290;44.240;2023-11-21T09:44:02;1.08;79.24
75466;HTU21D;64049;46.290;44.240;2023-11-21T09:46:33;1.09;78.94
75466;HTU21D;64049;46.290;44.240;2023-11-21T09:49:00;1.09;78.69
75466;HTU21D;64049;46.290;44.240;2023-11-21T09:51:31;1.09;78.62
75466;HTU21D;64049;46.290;44.240;2023-11-21T09:53:59;1.10;78.31
75466;HTU21D;64049;46.290;44.240;2023-11-21T09:56:25;1.07;78.23
75466;HTU21D;64049;46.290;44.240;2023-11-21T09:58:53;1.08;78.02
75466;HTU21D;64049;46.290;44.240;2023-11-21T10:01:20;1.09;77.80
75466;HTU21D;64049;46.290;44.240;2023-11-21T10:03:46;1.09;77.56
75466;HTU21D;64049;46.290;44.240;2023-11-21T10:06:13;1.02;77.62
75466;HTU21D;64049;46.290;44.240;2023-11-21T10:08:42;0.96;78.08
75466;HTU21D;64049;46.290;44.240;2023-11-21T10:11:10;0.93;78.22
75466;HTU21D;64049;46.290;44.240;2023-11-21T10:13:38;0.88;78.43
75466;HTU21D;64049;46.290;44.240;2023-11-21T10:16:07;0.82;78.64
75466;HTU21D;64049;46.290;44.240;2023-11-21T10:18:37;0.79;78.77
75466;HTU21D;64049;46.290;44.240;2023-11-21T10:21:07;0.80;78.91
75466;HTU21D;64049;46.290;44.240;2023-11-21T10:23:34;0.77;78.95
75466;HTU21D;64049;46.290;44.240;2023-11-21T10:26:01;0.75;78.94
75466;HTU21D;64049;46.290;44.240;2023-11-21T10:28:27;0.74;79.00
75466;HTU21D;64049;46.290;44.240;2023-11-21T10:30:53;0.73;79.05
75466;HTU21D;64049;46.290;44.240;2023-11-21T10:33:27;0.75;79.15
75466;HTU21D;64049;46.290;44.240;2023-11-21T10:35:53;0.77;79.11
75466;HTU21D;64049;46.290;44.240;2023-11-21T10:38:21;0.77;78.88
75466;HTU21D;64049;46.290;44.240;2023-11-21T10:40:49;0.76;78.82
75466;HTU21D;64049;46.290;44.240;2023-11-21T10:43:15;0.72;78.82
75466;HTU21D;64049;46.290;44.240;2023-11-21T10:45:42;0.67;79.13
75466;HTU21D;64049;46.290;44.240;2023-11-21T10:48:09;0.66;79.37
75466;HTU21D;64049;46.290;44.240;2023-11-21T10:50:46;0.59;79.72
75466;HTU21D;64049;46.290;44.240;2023-11-21T10:53:13;0.58;80.17
75466;HTU21D;64049;46.290;44.240;2023-11-21T10:55:39;0.60;80.48
75466;HTU21D;64049;46.290;44.240;2023-11-21T10:58:05;0.64;80.40
75466;HTU21D;64049;46.290;44.240;2023-11-21T11:00:33;0.59;80.25
75466;HTU21D;64049;46.290;44.240;2023-11-21T11:03:00;0.54;80.40
75466;HTU21D;64049;46.290;44.240;2023-11-21T11:05:28;0.49;80.63
75466;HTU21D;64049;46.290;44.240;2023-11-21T11:08:05;0.49;80.74
75466;HTU21D;64049;46.290;44.240;2023-11-21T11:10:31;0.44;80.27
75466;HTU21D;64049;46.290;44.240;2023-11-21T11:12:58;0.48;79.89
75466;HTU21D;64049;46.290;44.240;2023-11-21T11:15:25;0.51;79.47
75466;HTU21D;64049;46.290;44.240;2023-11-21T11:17:53;0.51;79.14
75466;HTU21D;64049;46.290;44.240;2023-11-21T11:20:34;0.53;78.59
75466;HTU21D;64049;46.290;44.240;2023-11-21T11:24:13;0.47;78.02
75466;HTU21D;64049;46.290;44.240;2023-11-21T11:34:28;0.29;78.69
75466;HTU21D;64049;46.290;44.240;2023-11-21T11:37:07;0.23;78.98
75466;HTU21D;64049;46.290;44.240;2023-11-21T11:39:38;0.17;79.29
75466;HTU21D;64049;46.290;44.240;2023-11-21T11:42:12;0.15;79.53
75466;HTU21D;64049;46.290;44.240;2023-11-21T11:50:02;0.12;79.15
75466;HTU21D;64049;46.290;44.240;2023-11-21T11:52:46;0.05;79.11
75466;HTU21D;64049;46.290;44.240;2023-11-21T11:55:14;-0.01;79.21
75466;HTU21D;64049;46.290;44.240;2023-11-21T11:57:45;-0.08;79.37
75466;HTU21D;64049;46.290;44.240;2023-11-21T12:02:44;-0.12;79.88
75466;HTU21D;64049;46.290;44.240;2023-11-21T12:05:14;-0.19;80.04
75466;HTU21D;64049;46.290;44.240;2023-11-21T12:07:50;-0.17;80.11
75466;HTU21D;64049;46.290;44.240;2023-11-21T12:10:20;-0.15;79.88
75466;HTU21D;64049;46.290;44.240;2023-11-21T12:12:55;-0.13;79.72
75466;HTU21D;64049;46.290;44.240;2023-11-21T12:15:22;-0.09;79.65
75466;HTU21D;64049;46.290;44.240;2023-11-21T12:17:49;-0.10;79.58
75466;HTU21D;64049;46.290;44.240;2023-11-21T12:20:19;-0.12;79.53
75466;HTU21D;64049;46.290;44.240;2023-11-21T12:22:47;-0.14;79.43
75466;HTU21D;64049;46.290;44.240;2023-11-21T12:25:18;-0.14;79.40
75466;HTU21D;64049;46.290;44.240;2023-11-21T12:27:49;-0.16;79.46
75466;HTU21D;64049;46.290;44.240;2023-11-21T12:30:16;-0.15;79.62
75466;HTU21D;64049;46.290;44.240;2023-11-21T12:32:44;-0.16;79.74
75466;HTU21D;64049;46.290;44.240;2023-11-21T12:35:12;-0.15;79.85
75466;HTU21D;64049;46.290;44.240;2023-11-21T12:37:39;-0.20;80.04
75466;HTU21D;64049;46.290;44.240;2023-11-21T12:40:06;-0.23;80.42
75466;HTU21D;64049;46.290;44.240;2023-11-21T12:42:34;-0.24;80.46
75466;HTU21D;64049;46.290;44.240;2023-11-21T12:47:49;-0.30;80.04
75466;HTU21D;64049;46.290;44.240;2023-11-21T12:50:22;-0.32;79.65
75466;HTU21D;64049;46.290;44.240;2023-11-21T12:52:52;-0.35;79.33
75466;HTU21D;64049;46.290;44.240;2023-11-21T12:55:22;-0.35;79.20
75466;HTU21D;64049;46.290;44.240;2023-11-21T12:57:53;-0.34;79.11
75466;HTU21D;64049;46.290;44.240;2023-11-21T13:00:33;-0.36;79.00
75466;HTU21D;64049;46.290;44.240;2023-11-21T13:03:04;-0.37;78.85
75466;HTU21D;64049;46.290;44.240;2023-11-21T13:05:34;-0.39;78.63
75466;HTU21D;64049;46.290;44.240;2023-11-21T13:08:02;-0.37;78.50
75466;HTU21D;64049;46.290;44.240;2023-11-21T13:10:32;-0.37;78.15
75466;HTU21D;64049;46.290;44.240;2023-11-21T13:13:02;-0.35;78.15
75466;HTU21D;64049;46.290;44.240;2023-11-21T13:15:31;-0.35;77.95
75466;HTU21D;64049;46.290;44.240;2023-11-21T13:17:58;-0.36;77.87
75466;HTU21D;64049;46.290;44.240;2023-11-21T13:20:25;-0.36;77.77
75466;HTU21D;64049;46.290;44.240;2023-11-21T13:25:23;-0.41;77.73
75466;HTU21D;64049;46.290;44.240;2023-11-21T13:27:56;-0.41;77.81
75466;HTU21D;64049;46.290;44.240;2023-11-21T13:30:22;-0.41;77.76
75466;HTU21D;64049;46.290;44.240;2023-11-21T13:32:55;-0.43;77.59
75466;HTU21D;64049;46.290;44.240;2023-11-21T13:35:31;-0.44;77.61
75466;HTU21D;64049;46.290;44.240;2023-11-21T13:38:04;-0.45;77.70
75466;HTU21D;64049;46.290;44.240;2023-11-21T13:40:33;-0.45;77.77
75466;HTU21D;64049;46.290;44.240;2023-11-21T13:43:03;-0.44;77.78
75466;HTU21D;64049;46.290;44.240;2023-11-21T13:45:30;-0.44;77.69
75466;HTU21D;64049;46.290;44.240;2023-11-21T13:47:56;-0.41;77.64
75466;HTU21D;64049;46.290;44.240;2023-11-21T13:50:27;-0.42;77.68
75466;HTU21D;64049;46.290;44.240;2023-11-21T13:53:00;-0.44;77.79
75466;HTU21D;64049;46.290;44.240;2023-11-21T13:55:36;-0.44;77.87
75466;HTU21D;64049;46.290;44.240;2023-11-21T13:58:03;-0.46;77.64
75466;HTU21D;64049;46.290;44.240;2023-11-21T14:00:30;-0.49;77.47
75466;HTU21D;64049;46.290;44.240;2023-11-21T14:03:12;-0.52;77.27
75466;HTU21D;64049;46.290;44.240;2023-11-21T14:05:48;-0.52;77.27
75466;HTU21D;64049;46.290;44.240;2023-11-21T14:08:20;-0.56;77.22
75466;HTU21D;64049;46.290;44.240;2023-11-21T14:10:47;-0.60;77.05
75466;HTU21D;64049;46.290;44.240;2023-11-21T14:13:21;-0.62;76.98
75466;HTU21D;64049;46.290;44.240;2023-11-21T14:15:49;-0.66;76.83
75466;HTU21D;64049;46.290;44.240;2023-11-21T14:18:19;-0.64;76.81
75466;HTU21D;64049;46.290;44.240;2023-11-21T14:20:53;-0.61;76.86
75466;HTU21D;64049;46.290;44.240;2023-11-21T14:23:18;-0.60;77.02
75466;HTU21D;64049;46.290;44.240;2023-11-21T14:25:47;-0.60;77.21
75466;HTU21D;64049;46.290;44.240;2023-11-21T14:28:13;-0.56;77.47
75466;HTU21D;64049;46.290;44.240;2023-11-21T14:30:40;-0.58;77.63
75466;HTU21D;64049;46.290;44.240;2023-11-21T14:33:08;-0.60;77.91
75466;HTU21D;64049;46.290;44.240;2023-11-21T14:35:35;-0.60;78.17
75466;HTU21D;64049;46.290;44.240;2023-11-21T14:38:02;-0.59;78.40
75466;HTU21D;64049;46.290;44.240;2023-11-21T14:40:31;-0.57;78.47
75466;HTU21D;64049;46.290;44.240;2023-11-21T14:43:00;-0.59;78.29
75466;HTU21D;64049;46.290;44.240;2023-11-21T14:45:26;-0.60;78.12
75466;HTU21D;64049;46.290;44.240;2023-11-21T14:47:52;-0.64;78.19
75466;HTU21D;64049;46.290;44.240;2023-11-21T14:50:33;-0.68;78.49
75466;HTU21D;64049;46.290;44.240;2023-11-21T14:53:12;-0.72;79.07
75466;HTU21D;64049;46.290;44.240;2023-11-21T14:55:39;-0.76;79.66
75466;HTU21D;64049;46.290;44.240;2023-11-21T14:58:18;-0.84;80.22
75466;HTU21D;64049;46.290;44.240;2023-11-21T15:00:57;-0.89;80.55
75466;HTU21D;64049;46.290;44.240;2023-11-21T15:03:27;-0.90;80.69
75466;HTU21D;64049;46.290;44.240;2023-11-21T15:06:00;-0.90;80.49
75466;HTU21D;64049;46.290;44.240;2023-11-21T15:08:51;-0.90;80.21
75466;HTU21D;64049;46.290;44.240;2023-11-21T15:11:46;-0.88;79.98
75466;HTU21D;64049;46.290;44.240;2023-11-21T15:14:13;-0.89;79.67
75466;HTU21D;64049;46.290;44.240;2023-11-21T15:16:45;-0.89;79.49
75466;HTU21D;64049;46.290;44.240;2023-11-21T15:19:16;-0.90;79.31
75466;HTU21D;64049;46.290;44.240;2023-11-21T15:21:44;-0.88;79.24
75466;HTU21D;64049;46.290;44.240;2023-11-21T15:24:12;-0.86;79.12
75466;HTU21D;64049;46.290;44.240;2023-11-21T15:26:38;-0.86;78.96
75466;HTU21D;64049;46.290;44.240;2023-11-21T15:29:04;-0.84;78.66
75466;HTU21D;64049;46.290;44.240;2023-11-21T15:31:30;-0.81;78.51
75466;HTU21D;64049;46.290;44.240;2023-11-21T15:33:56;-0.85;77.76
75466;HTU21D;64049;46.290;44.240;2023-11-21T15:36:28;-0.86;77.79
75466;HTU21D;64049;46.290;44.240;2023-11-21T15:38:54;-0.89;77.75
75466;HTU21D;64049;46.290;44.240;2023-11-21T15:41:20;-0.90;77.85